Time;durP1;ratioP1;P1;durP2;ratioP2;P2;SDS_P1;SDS_P2;PMS_P1;PMS_P2;Temp;Humidity;BMP_temperature;BMP_pressure;BME280_temperature;BME280_humidity;BME280_pressure;Samples;Min_cycle;Max_cycle;Signal;HPM_P1;HPM_P2
2024/04/05 00:02:24;;;;;;;21.00;7.30;;;12.40;99.90;;;;;;4897128;29;20570;-70
2024/04/05 00:04:50;;;;;;;25.20;8.30;;;12.40;99.90;;;;;;4896863;29;21050;-70
2024/04/05 00:07:17;;;;;;;24.57;8.00;;;12.40;99.90;;;;;;4896865;29;20955;-70
2024/04/05 00:09:44;;;;;;;28.93;7.23;;;12.40;99.90;;;;;;4881145;29;20449;-70
2024/04/05 00:12:11;;;;;;;23.53;6.97;;;12.40;99.90;;;;;;4896735;29;20572;-69
2024/04/05 00:14:38;;;;;;;20.20;7.20;;;12.40;99.90;;;;;;4914261;29;20456;-70
2024/04/05 00:17:05;;;;;;;19.60;6.80;;;12.40;99.90;;;;;;4900238;29;20515;-70
2024/04/05 00:19:32;;;;;;;22.77;7.10;;;12.40;99.90;;;;;;4898526;29;20456;-70
2024/04/05 00:22:00;;;;;;;23.00;7.20;;;12.40;99.90;;;;;;4913615;29;20900;-70
2024/04/05 00:24:28;;;;;;;25.43;8.00;;;12.40;99.90;;;;;;4884570;29;20481;-70
2024/04/05 00:26:55;;;;;;;21.60;7.60;;;12.40;99.90;;;;;;4900871;29;20500;-70
2024/04/05 00:29:21;;;;;;;21.20;6.60;;;12.40;99.90;;;;;;4900933;29;20520;-70
2024/04/05 00:31:49;;;;;;;21.20;6.93;;;12.40;99.90;;;;;;4915985;29;20539;-70
2024/04/05 00:34:15;;;;;;;27.50;6.97;;;12.40;99.90;;;;;;4900110;29;20441;-69
2024/04/05 00:36:43;;;;;;;27.13;8.23;;;12.40;99.90;;;;;;4900221;29;20504;-70
2024/04/05 00:39:10;;;;;;;28.27;7.30;;;12.50;99.90;;;;;;4900038;29;20453;-70
2024/04/05 00:41:37;;;;;;;27.67;8.50;;;12.40;99.90;;;;;;4900149;29;20457;-69
2024/04/05 00:44:04;;;;;;;26.77;8.13;;;12.50;99.90;;;;;;4915855;29;20516;-70
2024/04/05 00:46:34;;;;;;;28.37;7.70;;;12.50;99.90;;;;;;4884561;29;20460;-70
2024/04/05 00:49:01;;;;;;;17.27;6.80;;;12.40;99.90;;;;;;4900384;29;20440;-70
2024/04/05 00:51:28;;;;;;;23.57;6.80;;;12.50;99.90;;;;;;4915613;29;20452;-70
2024/04/05 00:53:57;;;;;;;22.90;7.80;;;12.50;99.90;;;;;;4899823;29;20445;-70
2024/04/05 00:56:25;;;;;;;23.33;8.37;;;12.50;99.90;;;;;;4900209;29;20954;-70
2024/04/05 00:58:52;;;;;;;19.70;6.80;;;12.50;99.90;;;;;;4899753;29;20969;-70
2024/04/05 01:01:20;;;;;;;18.93;6.70;;;12.50;99.90;;;;;;4915329;29;20453;-70
2024/04/05 01:03:46;;;;;;;24.57;7.37;;;12.50;99.90;;;;;;4899549;29;20476;-70
2024/04/05 01:06:14;;;;;;;17.90;6.77;;;12.50;99.90;;;;;;4899483;29;20453;-70
2024/04/05 01:08:40;;;;;;;20.50;6.80;;;12.50;99.90;;;;;;4899454;29;20516;-70
2024/04/05 01:11:09;;;;;;;20.93;7.47;;;12.50;99.90;;;;;;4899485;29;20449;-70
2024/04/05 01:13:35;;;;;;;22.07;7.70;;;12.50;99.90;;;;;;4899749;29;20841;-70
2024/04/05 01:16:06;;;;;;;22.33;8.07;;;12.40;99.90;;;;;;4899286;29;20943;-70
2024/04/05 01:18:32;;;;;;;17.40;6.70;;;12.50;99.90;;;;;;4899316;29;20430;-70
2024/04/05 01:21:02;;;;;;;23.57;7.87;;;12.40;99.90;;;;;;4883647;29;20488;-70
2024/04/05 01:23:29;;;;;;;18.47;6.73;;;12.40;99.90;;;;;;4899171;29;20469;-70
2024/04/05 01:25:58;;;;;;;21.20;6.27;;;12.40;99.90;;;;;;4899168;29;20584;-70
2024/04/05 01:28:24;;;;;;;22.30;7.67;;;12.30;99.90;;;;;;4899472;29;20445;-70
2024/04/05 01:30:51;;;;;;;19.87;6.10;;;12.30;99.90;;;;;;4898993;29;20450;-70
2024/04/05 01:33:17;;;;;;;22.30;6.20;;;12.30;99.90;;;;;;4899030;29;21010;-70
2024/04/05 01:35:44;;;;;;;19.03;6.07;;;12.30;99.90;;;;;;4914545;29;20465;-69
2024/04/05 01:38:11;;;;;;;17.20;6.37;;;12.30;99.90;;;;;;4898920;29;20481;-70
2024/04/05 01:40:38;;;;;;;21.70;6.60;;;12.30;99.90;;;;;;4898927;29;20449;-70
2024/04/05 01:43:06;;;;;;;18.67;5.90;;;12.30;99.90;;;;;;4898732;29;20473;-70
2024/04/05 01:45:33;;;;;;;18.17;6.00;;;12.20;99.90;;;;;;4899406;29;20461;-70
2024/04/05 01:47:59;;;;;;;22.90;6.70;;;12.20;99.90;;;;;;4898894;29;20970;-70
2024/04/05 01:50:27;;;;;;;20.43;6.70;;;12.20;99.90;;;;;;4898865;29;20505;-70
2024/04/05 01:52:53;;;;;;;21.03;7.03;;;12.20;99.90;;;;;;4898765;29;20835;-70
2024/04/05 01:55:20;;;;;;;17.23;5.87;;;12.10;99.90;;;;;;4898791;29;20453;-70
2024/04/05 01:57:46;;;;;;;14.87;5.07;;;12.10;99.90;;;;;;4898754;29;20472;-70
2024/04/05 02:00:15;;;;;;;18.83;6.37;;;12.10;99.90;;;;;;4914398;29;20454;-70
2024/04/05 02:02:44;;;;;;;15.60;5.50;;;12.10;99.90;;;;;;4883206;29;20919;-70
2024/04/05 02:05:11;;;;;;;17.90;5.73;;;12.00;99.90;;;;;;4914186;29;20481;-70
2024/04/05 02:07:38;;;;;;;19.20;5.63;;;12.00;99.90;;;;;;4914180;29;20457;-70
2024/04/05 02:10:05;;;;;;;16.40;5.77;;;12.00;99.90;;;;;;4899063;29;20450;-70
2024/04/05 02:12:32;;;;;;;15.20;5.63;;;12.00;99.90;;;;;;4914227;29;20465;-70
2024/04/05 02:14:59;;;;;;;21.80;6.73;;;12.00;99.90;;;;;;4898669;29;20445;-70
2024/04/05 02:17:26;;;;;;;13.97;5.20;;;12.00;99.90;;;;;;4898327;29;20445;-70
2024/04/05 02:19:54;;;;;;;18.87;5.90;;;11.90;99.90;;;;;;4898349;29;20464;-70
2024/04/05 02:22:20;;;;;;;17.07;5.70;;;11.90;99.90;;;;;;4898215;29;20469;-70
2024/04/05 02:24:47;;;;;;;20.10;6.50;;;11.90;99.90;;;;;;4898395;29;20485;-70
2024/04/05 02:27:16;;;;;;;19.30;7.13;;;11.90;99.90;;;;;;4898128;29;20543;-70
2024/04/05 02:29:43;;;;;;;15.63;6.67;;;11.90;99.90;;;;;;4898578;29;20947;-70
2024/04/05 02:32:09;;;;;;;15.63;5.83;;;11.80;99.90;;;;;;4898095;29;21017;-70
2024/04/05 02:34:38;;;;;;;18.63;6.67;;;11.80;99.90;;;;;;4897987;29;20453;-70
2024/04/05 02:37:04;;;;;;;16.37;5.20;;;11.80;99.90;;;;;;4897930;29;20449;-70
2024/04/05 02:39:32;;;;;;;14.37;5.60;;;11.80;99.90;;;;;;4882280;29;20465;-70
2024/04/05 02:41:58;;;;;;;18.57;6.20;;;11.80;99.90;;;;;;4898093;29;20468;-70
2024/04/05 02:44:25;;;;;;;22.23;6.53;;;11.80;99.90;;;;;;4897720;29;20492;-70
2024/04/05 02:46:52;;;;;;;17.07;5.80;;;11.80;99.90;;;;;;4897638;29;20865;-70
2024/04/05 02:49:19;;;;;;;19.27;6.03;;;11.70;99.90;;;;;;4898032;29;20481;-70
2024/04/05 02:51:47;;;;;;;17.03;6.63;;;11.70;99.90;;;;;;4897570;29;20513;-69
2024/04/05 02:54:15;;;;;;;14.97;5.60;;;11.70;99.90;;;;;;4897689;29;20460;-69
2024/04/05 02:56:41;;;;;;;17.57;6.27;;;11.70;99.90;;;;;;4897606;29;20518;-70
2024/04/05 02:59:08;;;;;;;17.63;6.13;;;11.70;99.90;;;;;;4897556;29;20861;-70
2024/04/05 03:01:34;;;;;;;18.90;6.23;;;11.70;99.90;;;;;;4897453;29;20457;-70
2024/04/05 03:04:02;;;;;;;22.60;6.50;;;11.70;99.90;;;;;;4897458;29;20464;-70
2024/04/05 03:06:28;;;;;;;14.43;6.03;;;11.70;99.90;;;;;;4881950;29;20457;-70
2024/04/05 03:08:57;;;;;;;16.83;5.70;;;11.70;99.90;;;;;;4913254;29;20456;-70
2024/04/05 03:11:23;;;;;;;17.23;6.63;;;11.70;99.90;;;;;;4897303;29;21019;-70
2024/04/05 03:13:50;;;;;;;18.70;6.07;;;11.70;99.90;;;;;;4897404;29;20513;-70
2024/04/05 03:16:17;;;;;;;14.27;5.50;;;11.60;99.90;;;;;;4881954;29;20520;-70
2024/04/05 03:18:45;;;;;;;18.93;5.90;;;11.60;99.90;;;;;;4897379;29;20497;-70
2024/04/05 03:21:11;;;;;;;20.40;6.43;;;11.60;99.90;;;;;;4897295;29;20943;-69
2024/04/05 03:23:38;;;;;;;13.87;5.77;;;11.70;99.90;;;;;;4897221;29;20497;-69
2024/04/05 03:26:06;;;;;;;15.87;5.93;;;11.60;99.90;;;;;;4897757;29;20488;-70
2024/04/05 03:28:33;;;;;;;15.83;6.30;;;11.70;99.90;;;;;;4912742;29;20540;-70
2024/04/05 03:31:03;;;;;;;17.10;5.93;;;11.60;99.90;;;;;;4897233;29;20457;-70
2024/04/05 03:33:31;;;;;;;16.97;5.93;;;11.60;99.90;;;;;;4897060;29;20472;-70
2024/04/05 03:36:02;;;;;;;13.87;5.53;;;11.60;99.90;;;;;;4897387;29;20449;-70
2024/04/05 03:38:29;;;;;;;19.53;6.43;;;11.60;99.90;;;;;;4881518;29;20535;-70
2024/04/05 03:40:56;;;;;;;19.17;5.70;;;11.60;99.90;;;;;;4897073;29;20450;-70
2024/04/05 03:43:24;;;;;;;17.10;5.90;;;11.60;99.90;;;;;;4881191;29;20572;-70
2024/04/05 03:45:51;;;;;;;20.47;7.03;;;11.60;99.90;;;;;;4897407;29;20487;-70
2024/04/05 03:48:17;;;;;;;13.13;5.67;;;11.60;99.90;;;;;;4897010;29;20619;-70
2024/04/05 03:50:45;;;;;;;20.03;5.60;;;11.60;99.90;;;;;;4898493;29;20456;-70
2024/04/05 03:53:11;;;;;;;20.63;6.80;;;11.60;99.90;;;;;;4899398;29;21079;-70
2024/04/05 03:55:38;;;;;;;17.47;6.43;;;11.60;99.90;;;;;;4883081;29;20449;-69
2024/04/05 03:58:05;;;;;;;16.10;6.33;;;11.60;99.90;;;;;;4898771;29;20963;-70
2024/04/05 04:00:33;;;;;;;18.50;6.10;;;11.60;99.90;;;;;;4901700;29;20453;-70
2024/04/05 04:02:59;;;;;;;20.20;6.57;;;11.60;99.90;;;;;;4900913;29;20492;-70
2024/04/05 04:05:27;;;;;;;18.30;6.40;;;11.60;99.90;;;;;;4900893;29;20528;-70
2024/04/05 04:07:53;;;;;;;23.60;6.50;;;11.60;99.90;;;;;;4900815;29;20477;-70
2024/04/05 04:10:22;;;;;;;18.40;6.67;;;11.60;99.90;;;;;;4900733;29;20455;-70
2024/04/05 04:12:49;;;;;;;18.03;6.63;;;11.60;99.90;;;;;;4900859;29;20468;-70
2024/04/05 04:15:16;;;;;;;19.93;6.17;;;11.50;99.90;;;;;;4900693;29;20449;-70
2024/04/05 04:17:44;;;;;;;16.57;6.60;;;11.60;99.90;;;;;;4900510;29;21023;-70
2024/04/05 04:20:11;;;;;;;19.17;6.83;;;11.50;99.90;;;;;;4900512;29;20819;-70
2024/04/05 04:22:38;;;;;;;12.37;6.00;;;11.50;99.90;;;;;;4900380;29;20483;-70
2024/04/05 04:25:06;;;;;;;20.37;6.20;;;11.50;99.90;;;;;;4884763;29;20477;-70
2024/04/05 04:27:32;;;;;;;18.83;6.23;;;11.50;99.90;;;;;;4900443;29;20452;-70
2024/04/05 04:29:59;;;;;;;16.50;6.00;;;11.50;99.90;;;;;;4916149;29;20476;-70
2024/04/05 04:32:26;;;;;;;21.43;7.00;;;11.40;99.90;;;;;;4900387;29;20875;-70
2024/04/05 04:34:54;;;;;;;19.07;6.63;;;11.50;99.90;;;;;;4900316;29;20513;-70
2024/04/05 04:37:23;;;;;;;16.03;5.80;;;11.40;99.90;;;;;;4900160;29;20464;-70
2024/04/05 04:39:50;;;;;;;18.77;6.27;;;11.40;99.90;;;;;;4900162;29;20822;-70
2024/04/05 04:42:17;;;;;;;16.60;6.30;;;11.40;99.90;;;;;;4900144;29;20464;-70
2024/04/05 04:44:44;;;;;;;17.07;5.60;;;11.40;99.90;;;;;;4899856;29;20484;-70
2024/04/05 04:47:10;;;;;;;19.50;6.27;;;11.40;99.90;;;;;;4900020;29;20453;-70
2024/04/05 04:49:38;;;;;;;23.03;6.57;;;11.30;99.90;;;;;;4900240;29;20453;-70
2024/04/05 04:52:06;;;;;;;16.93;6.20;;;11.30;99.90;;;;;;4900201;29;20469;-70
2024/04/05 04:54:33;;;;;;;16.30;5.37;;;11.30;99.90;;;;;;4899986;29;20829;-70
2024/04/05 04:57:00;;;;;;;13.30;5.80;;;11.30;99.90;;;;;;4899762;29;20504;-70
2024/04/05 04:59:29;;;;;;;15.53;6.97;;;11.30;99.90;;;;;;4899752;29;20445;-70
2024/04/05 05:01:55;;;;;;;16.17;7.20;;;11.30;99.90;;;;;;4884016;29;20484;-70
2024/04/05 05:04:23;;;;;;;15.33;6.03;;;11.30;99.90;;;;;;4899666;29;20488;-70
2024/04/05 05:06:50;;;;;;;20.83;6.60;;;11.30;99.90;;;;;;4900127;29;20456;-70
2024/04/05 05:09:19;;;;;;;17.13;7.10;;;11.30;99.90;;;;;;4899167;29;20447;-70
2024/04/05 05:11:46;;;;;;;15.97;6.23;;;11.30;99.90;;;;;;4899611;29;20496;-70
2024/04/05 05:14:14;;;;;;;17.17;6.10;;;11.30;99.90;;;;;;4899573;29;20872;-70
2024/04/05 05:16:40;;;;;;;15.87;6.03;;;11.30;99.90;;;;;;4915063;29;20510;-70
2024/04/05 05:19:08;;;;;;;19.73;5.73;;;11.30;99.90;;;;;;4899250;29;20468;-70
2024/04/05 05:21:35;;;;;;;14.53;5.53;;;11.30;99.90;;;;;;4899354;29;20544;-70
2024/04/05 05:24:02;;;;;;;20.33;7.40;;;11.30;99.90;;;;;;4883778;29;20970;-70
2024/04/05 05:26:31;;;;;;;18.00;7.17;;;11.30;99.90;;;;;;4899520;29;20564;-70
2024/04/05 05:28:59;;;;;;;24.30;6.80;;;11.40;99.90;;;;;;4899439;29;20908;-70
2024/04/05 05:31:25;;;;;;;18.00;6.30;;;11.30;99.90;;;;;;4899136;29;20452;-70
2024/04/05 05:33:53;;;;;;;19.10;7.23;;;11.40;99.90;;;;;;4899227;29;20787;-70
2024/04/05 05:36:19;;;;;;;20.33;6.67;;;11.40;99.90;;;;;;4899426;29;21023;-69
2024/04/05 05:38:46;;;;;;;17.00;6.10;;;11.40;99.90;;;;;;4899233;29;20452;-70
2024/04/05 05:41:12;;;;;;;17.93;6.43;;;11.40;99.90;;;;;;4899322;29;20453;-70
2024/04/05 05:43:41;;;;;;;21.87;6.37;;;11.40;99.90;;;;;;4899035;29;20488;-70
2024/04/05 05:46:07;;;;;;;24.50;6.87;;;11.40;99.90;;;;;;4899528;29;20477;-69
2024/04/05 05:48:35;;;;;;;18.13;6.73;;;11.50;99.90;;;;;;4899143;29;20525;-69
2024/04/05 05:51:01;;;;;;;19.57;6.90;;;11.50;99.90;;;;;;4898929;29;20505;-70
2024/04/05 05:53:29;;;;;;;25.97;10.57;;;11.50;99.90;;;;;;4898818;29;20469;-70
2024/04/05 05:55:55;;;;;;;23.30;7.30;;;11.50;99.90;;;;;;4898795;29;20581;-70
2024/04/05 05:58:22;;;;;;;20.97;9.70;;;11.50;99.90;;;;;;4914442;29;20460;-70
2024/04/05 06:00:50;;;;;;;13.47;6.43;;;11.60;99.90;;;;;;4898914;29;20475;-69
2024/04/05 06:03:17;;;;;;;17.03;6.73;;;11.60;99.90;;;;;;4898767;29;20469;-70
2024/04/05 06:05:49;;;;;;;15.53;6.03;;;11.60;99.90;;;;;;4898599;29;20484;-70
2024/04/05 06:08:16;;;;;;;17.90;6.60;;;11.60;99.90;;;;;;4883211;29;20456;-70
2024/04/05 06:10:43;;;;;;;19.53;7.63;;;11.60;99.90;;;;;;4898674;29;20509;-70
2024/04/05 06:13:11;;;;;;;14.00;5.90;;;11.70;99.90;;;;;;4898627;29;20938;-70
2024/04/05 06:15:37;;;;;;;14.83;6.17;;;11.60;99.90;;;;;;4898616;29;20450;-70
2024/04/05 06:18:07;;;;;;;19.13;6.37;;;11.70;99.90;;;;;;4898623;29;20464;-70
2024/04/05 06:20:33;;;;;;;15.50;6.27;;;11.70;99.90;;;;;;4898158;29;20430;-70
2024/04/05 06:23:01;;;;;;;15.73;6.40;;;11.70;99.90;;;;;;4898514;29;20476;-70
2024/04/05 06:25:28;;;;;;;19.37;7.10;;;11.70;99.90;;;;;;4898205;29;20477;-70
2024/04/05 06:27:55;;;;;;;17.77;6.70;;;11.70;99.90;;;;;;4898700;29;20456;-70
2024/04/05 06:30:21;;;;;;;15.97;7.27;;;11.70;99.90;;;;;;4898984;29;20501;-70
2024/04/05 06:32:49;;;;;;;18.73;7.23;;;11.70;99.90;;;;;;4898238;29;20475;-71
2024/04/05 06:35:16;;;;;;;16.70;7.23;;;11.70;99.90;;;;;;4898044;29;20971;-70
2024/04/05 06:37:45;;;;;;;18.93;6.77;;;11.70;99.90;;;;;;4898185;29;20456;-70
2024/04/05 06:40:12;;;;;;;22.30;8.83;;;11.70;99.90;;;;;;4898524;29;20493;-71
2024/04/05 06:42:39;;;;;;;22.93;10.73;;;11.70;99.90;;;;;;4898307;29;20990;-70
2024/04/05 06:45:08;;;;;;;21.30;9.20;;;11.70;99.90;;;;;;4898311;29;20953;-70
2024/04/05 06:47:36;;;;;;;16.20;7.47;;;11.80;99.90;;;;;;4898219;29;20859;-70
2024/04/05 06:50:04;;;;;;;16.90;7.17;;;11.80;99.90;;;;;;4898155;29;20453;-70
2024/04/05 06:52:33;;;;;;;16.10;6.93;;;11.80;99.90;;;;;;4897975;29;20465;-70
2024/04/05 06:55:00;;;;;;;16.27;7.97;;;11.80;99.90;;;;;;4913537;29;20461;-70
2024/04/05 06:57:27;;;;;;;17.83;7.63;;;11.80;99.90;;;;;;4882145;29;20986;-70
2024/04/05 06:59:53;;;;;;;19.07;8.23;;;11.80;99.90;;;;;;4897722;29;20449;-70
2024/04/05 07:02:22;;;;;;;15.07;7.50;;;11.80;99.90;;;;;;4897715;29;20473;-70
2024/04/05 07:04:49;;;;;;;18.43;8.10;;;11.80;99.90;;;;;;4897775;29;20533;-69
2024/04/05 07:07:16;;;;;;;16.53;8.07;;;11.80;99.90;;;;;;4897607;29;20477;-70
2024/04/05 07:09:45;;;;;;;16.73;7.00;;;11.90;99.90;;;;;;4897664;29;20453;-70
2024/04/05 07:12:12;;;;;;;20.13;8.77;;;11.90;99.90;;;;;;4897464;29;20473;-70
2024/04/05 07:14:38;;;;;;;17.03;8.10;;;11.90;99.90;;;;;;4897587;29;20441;-70
2024/04/05 07:17:06;;;;;;;22.83;8.73;;;12.00;99.90;;;;;;4897731;29;20517;-70
2024/04/05 07:19:32;;;;;;;19.50;8.03;;;12.00;99.90;;;;;;4881790;29;20855;-70
2024/04/05 07:22:00;;;;;;;17.33;7.30;;;12.10;99.90;;;;;;4897306;29;20537;-70
2024/04/05 07:24:26;;;;;;;16.40;8.20;;;12.10;99.90;;;;;;4897619;29;20450;-70
2024/04/05 07:26:54;;;;;;;15.93;6.73;;;12.10;99.90;;;;;;4897356;29;20978;-70
2024/04/05 07:29:21;;;;;;;21.23;7.57;;;12.10;99.90;;;;;;4897299;29;20456;-70
2024/04/05 07:31:49;;;;;;;21.60;8.00;;;12.20;99.90;;;;;;4897664;29;20481;-70
2024/04/05 07:34:15;;;;;;;17.10;8.03;;;12.30;99.90;;;;;;4897700;29;20507;-70
2024/04/05 07:36:45;;;;;;;15.27;7.70;;;12.40;99.90;;;;;;4902106;29;20455;-70
2024/04/05 07:39:12;;;;;;;16.00;8.13;;;12.50;99.90;;;;;;4898653;29;20444;-70
2024/04/05 07:41:39;;;;;;;19.90;9.97;;;12.70;99.90;;;;;;4898083;29;20481;-70
2024/04/05 07:44:07;;;;;;;18.90;6.67;;;12.80;99.90;;;;;;4897752;29;20471;-70
2024/04/05 07:46:34;;;;;;;15.50;7.37;;;12.90;99.90;;;;;;4913042;29;20572;-70
2024/04/05 07:49:00;;;;;;;14.17;7.07;;;13.00;99.90;;;;;;4897584;29;20457;-70
2024/04/05 07:51:27;;;;;;;20.53;10.90;;;13.10;99.90;;;;;;4913271;29;20449;-71
2024/04/05 07:53:54;;;;;;;14.23;9.53;;;13.20;99.90;;;;;;4913385;29;20862;-71
2024/04/05 07:56:22;;;;;;;15.23;9.43;;;13.20;99.90;;;;;;4898027;29;20494;-70
2024/04/05 07:58:49;;;;;;;17.67;8.70;;;13.40;99.90;;;;;;4898329;29;20456;-70
2024/04/05 08:01:18;;;;;;;18.20;8.47;;;13.60;99.90;;;;;;4897855;29;20456;-69
2024/04/05 08:03:45;;;;;;;15.93;6.70;;;13.80;99.90;;;;;;4881793;29;20980;-71
2024/04/05 08:06:12;;;;;;;10.37;6.20;;;14.00;99.90;;;;;;4897317;29;20500;-70
2024/04/05 08:08:39;;;;;;;16.00;9.30;;;14.00;99.90;;;;;;4897446;29;20457;-70
2024/04/05 08:11:06;;;;;;;11.80;7.03;;;14.10;99.90;;;;;;4897511;29;20826;-70
2024/04/05 08:13:32;;;;;;;16.93;10.17;;;14.10;99.90;;;;;;4897286;29;20983;-69
2024/04/05 08:16:01;;;;;;;20.57;11.77;;;14.20;99.90;;;;;;4897328;29;20461;-69
2024/04/05 08:18:29;;;;;;;17.27;6.73;;;14.20;99.90;;;;;;4897327;29;20449;-70
2024/04/05 08:20:56;;;;;;;18.40;13.43;;;14.20;99.90;;;;;;4897239;29;20457;-70
2024/04/05 08:23:22;;;;;;;17.87;7.73;;;14.20;99.90;;;;;;4897457;29;20469;-70
2024/04/05 08:25:50;;;;;;;15.57;8.07;;;14.30;99.90;;;;;;4897253;29;20675;-70
2024/04/05 08:28:18;;;;;;;18.63;7.00;;;14.30;99.90;;;;;;4881797;29;21091;-70
2024/04/05 08:30:45;;;;;;;16.33;7.67;;;14.40;99.90;;;;;;4897094;29;20465;-70
2024/04/05 08:33:11;;;;;;;13.40;6.40;;;14.40;99.90;;;;;;4897147;29;20832;-69
2024/04/05 08:35:40;;;;;;;13.00;6.97;;;14.40;99.90;;;;;;4897165;29;20446;-70
2024/04/05 08:38:06;;;;;;;14.10;7.53;;;14.40;99.90;;;;;;4897018;29;20451;-70
2024/04/05 08:40:34;;;;;;;13.50;6.93;;;14.40;99.90;;;;;;4897094;29;20464;-70
2024/04/05 08:43:01;;;;;;;16.03;6.60;;;14.50;99.90;;;;;;4912732;29;20890;-70
2024/04/05 08:45:31;;;;;;;12.60;7.30;;;14.50;99.90;;;;;;4915827;29;20453;-69
2024/04/05 08:48:03;;;;;;;12.23;6.53;;;14.50;99.90;;;;;;4900625;29;20440;-69
2024/04/05 08:50:31;;;;;;;13.60;6.63;;;14.60;99.90;;;;;;4900815;29;20441;-70
2024/04/05 08:53:00;;;;;;;14.73;6.20;;;14.60;99.90;;;;;;4900479;29;20998;-69
2024/04/05 08:55:27;;;;;;;14.13;6.50;;;14.60;99.90;;;;;;4900408;29;20453;-69
2024/04/05 08:57:55;;;;;;;14.77;6.87;;;14.70;99.90;;;;;;4900547;29;20453;-70
2024/04/05 09:00:24;;;;;;;12.53;8.50;;;14.70;99.90;;;;;;4900399;29;20449;-70
2024/04/05 09:02:54;;;;;;;13.00;5.73;;;14.70;99.90;;;;;;4899617;29;20532;-70
2024/04/05 09:05:22;;;;;;;15.63;8.63;;;14.80;99.90;;;;;;4900029;29;20472;-70
2024/04/05 09:07:49;;;;;;;14.40;7.70;;;14.90;99.90;;;;;;4899638;29;20460;-70
2024/04/05 09:10:18;;;;;;;18.83;7.43;;;15.00;99.90;;;;;;4899717;29;20800;-70
2024/04/05 09:12:49;;;;;;;15.63;8.20;;;15.00;99.90;;;;;;4883895;29;20465;-70
2024/04/05 09:15:20;;;;;;;11.50;6.17;;;15.00;99.90;;;;;;4915633;29;20814;-70
2024/04/05 09:17:46;;;;;;;13.83;10.10;;;15.10;99.90;;;;;;4915133;29;20449;-71
2024/04/05 09:20:19;;;;;;;11.67;6.10;;;15.20;99.90;;;;;;4899459;29;20540;-70
2024/04/05 09:22:48;;;;;;;14.70;7.97;;;15.20;99.90;;;;;;4884170;29;21005;-70
2024/04/05 09:25:18;;;;;;;12.53;6.10;;;15.30;99.90;;;;;;4899323;29;20453;-70
2024/04/05 09:27:46;;;;;;;11.67;6.00;;;15.30;99.90;;;;;;4899545;29;20461;-71
2024/04/05 09:30:15;;;;;;;10.90;6.23;;;15.30;99.90;;;;;;4883554;29;20453;-70
2024/04/05 09:32:47;;;;;;;11.60;6.20;;;15.30;99.90;;;;;;4899273;29;20469;-70
2024/04/05 09:35:18;;;;;;;9.70;4.90;;;15.40;99.90;;;;;;4900211;29;20429;-70
2024/04/05 09:37:46;;;;;;;10.47;5.23;;;15.40;99.90;;;;;;4899336;29;20469;-70
2024/04/05 09:40:16;;;;;;;10.70;5.40;;;15.50;99.90;;;;;;4914818;29;20530;-70
2024/04/05 09:42:45;;;;;;;10.50;5.33;;;15.50;99.90;;;;;;4898920;29;20479;-70
2024/04/05 09:45:12;;;;;;;10.17;5.60;;;15.50;99.90;;;;;;4898868;29;20456;-71
2024/04/05 09:47:40;;;;;;;9.30;4.47;;;15.60;99.90;;;;;;4898841;29;20912;-70
2024/04/05 09:50:08;;;;;;;8.90;4.60;;;15.60;99.90;;;;;;4899396;29;20449;-70
2024/04/05 09:52:40;;;;;;;10.47;5.00;;;15.60;99.90;;;;;;4898685;29;20958;-70
2024/04/05 09:55:13;;;;;;;12.53;7.00;;;15.60;99.90;;;;;;4898343;29;20437;-70
2024/04/05 09:57:39;;;;;;;8.50;5.20;;;15.70;99.90;;;;;;4898492;29;20404;-70
2024/04/05 10:00:15;;;;;;;7.33;3.70;;;15.70;99.90;;;;;;4898641;29;20451;-70
2024/04/05 10:02:46;;;;;;;6.80;3.70;;;15.70;99.90;;;;;;4898938;29;20473;-70
2024/04/05 10:05:27;;;;;;;9.00;6.07;;;15.70;99.90;;;;;;4898875;29;20438;-70
2024/04/05 10:07:53;;;;;;;8.73;5.40;;;15.70;99.90;;;;;;4914143;29;20536;-70
2024/04/05 10:10:32;;;;;;;13.47;5.60;;;15.70;99.90;;;;;;4898452;29;20487;-70
2024/04/05 10:13:09;;;;;;;8.43;4.13;;;15.70;99.90;;;;;;4882790;29;20473;-70
2024/04/05 10:15:39;;;;;;;11.50;5.20;;;15.80;99.90;;;;;;4898754;29;20434;-70
2024/04/05 10:18:06;;;;;;;10.63;7.77;;;15.80;99.90;;;;;;4898584;29;20453;-71
2024/04/05 10:20:34;;;;;;;10.17;6.20;;;15.80;99.90;;;;;;4898889;29;20931;-71
2024/04/05 10:23:01;;;;;;;8.70;4.00;;;15.80;99.90;;;;;;4898451;29;20579;-71
2024/04/05 10:25:28;;;;;;;11.03;4.30;;;15.90;99.90;;;;;;4898723;29;20448;-71
2024/04/05 10:27:55;;;;;;;8.33;3.80;;;15.90;99.90;;;;;;4899080;29;20901;-71
2024/04/05 10:30:24;;;;;;;11.07;5.40;;;15.90;99.90;;;;;;4898432;29;20465;-71
2024/04/05 10:32:57;;;;;;;9.37;4.20;;;16.00;99.90;;;;;;4898210;29;20447;-71
2024/04/05 10:35:26;;;;;;;10.30;4.00;;;16.00;99.90;;;;;;4897996;29;20540;-71
2024/04/05 10:37:59;;;;;;;7.83;3.33;;;16.00;99.90;;;;;;4897941;29;20431;-71
2024/04/05 10:40:27;;;;;;;8.63;4.00;;;16.00;99.90;;;;;;4882358;29;20449;-71
2024/04/05 10:42:54;;;;;;;8.67;3.70;;;16.00;99.90;;;;;;4897991;29;20452;-70
2024/04/05 10:45:23;;;;;;;8.87;3.93;;;15.90;99.90;;;;;;4897876;29;20964;-70
2024/04/05 10:47:53;;;;;;;5.73;3.70;;;15.90;99.90;;;;;;4897723;29;21046;-71
2024/04/05 10:50:22;;;;;;;6.50;3.70;;;15.90;99.90;;;;;;4897810;29;20936;-71
2024/04/05 10:52:50;;;;;;;9.67;4.27;;;15.80;99.90;;;;;;4897652;29;20568;-70
2024/04/05 10:55:17;;;;;;;7.47;3.80;;;15.80;99.90;;;;;;4897946;29;20982;-70
2024/04/05 10:57:44;;;;;;;6.20;3.77;;;15.70;99.90;;;;;;4897636;29;20424;-70
2024/04/05 11:00:12;;;;;;;8.03;3.30;;;15.70;99.90;;;;;;4897826;29;20424;-70
2024/04/05 11:02:40;;;;;;;6.77;3.27;;;15.70;99.90;;;;;;4897492;29;20450;-71
2024/04/05 11:05:10;;;;;;;8.40;3.90;;;15.70;99.90;;;;;;4897481;29;20468;-70
2024/04/05 11:07:38;;;;;;;8.73;4.47;;;15.60;99.90;;;;;;4897636;29;20804;-71
2024/04/05 11:10:16;;;;;;;7.07;4.43;;;15.60;99.90;;;;;;4881888;29;20449;-70
2024/04/05 11:12:44;;;;;;;10.10;5.07;;;15.60;99.90;;;;;;4897594;29;20477;-71
2024/04/05 11:15:11;;;;;;;21.50;15.40;;;15.60;99.90;;;;;;4900742;29;20584;-70
2024/04/05 11:17:38;;;;;;;8.77;4.40;;;15.60;99.90;;;;;;4899061;29;21002;-71
2024/04/05 11:20:11;;;;;;;12.17;4.27;;;15.60;99.90;;;;;;4898728;29;20524;-71
2024/04/05 11:22:39;;;;;;;6.23;4.10;;;15.60;99.90;;;;;;4897994;29;20843;-70
2024/04/05 11:25:08;;;;;;;8.50;4.20;;;15.60;99.90;;;;;;4898232;29;20428;-70
2024/04/05 11:27:34;;;;;;;6.70;4.30;;;15.60;99.90;;;;;;4897792;29;21053;-71
2024/04/05 11:30:04;;;;;;;7.80;6.00;;;15.60;99.90;;;;;;4897422;29;20453;-71
2024/04/05 11:32:32;;;;;;;9.17;4.57;;;15.60;99.90;;;;;;4897174;29;20476;-70
2024/04/05 11:35:01;;;;;;;9.10;5.07;;;15.50;99.90;;;;;;4897194;29;20480;-70
2024/04/05 11:37:28;;;;;;;9.20;4.87;;;15.60;99.90;;;;;;4912829;29;20460;-70
2024/04/05 11:39:57;;;;;;;13.50;8.30;;;15.50;99.90;;;;;;4912738;29;21022;-70
2024/04/05 11:42:23;;;;;;;11.10;6.90;;;15.50;99.90;;;;;;4881452;29;20862;-70
2024/04/05 11:44:51;;;;;;;8.20;7.33;;;15.50;99.90;;;;;;4897043;29;20459;-71
2024/04/05 11:47:21;;;;;;;7.73;5.00;;;15.50;99.90;;;;;;4881332;29;20460;-70
2024/04/05 11:49:48;;;;;;;9.43;5.40;;;15.50;99.90;;;;;;4896967;29;20425;-70
2024/04/05 11:52:15;;;;;;;8.67;5.70;;;15.50;99.90;;;;;;4896812;29;20525;-70
2024/04/05 11:54:43;;;;;;;10.33;5.23;;;15.50;99.90;;;;;;4897141;29;20449;-70
2024/04/05 11:57:14;;;;;;;7.80;4.43;;;15.50;99.90;;;;;;4897002;29;20540;-70
2024/04/05 11:59:42;;;;;;;9.60;5.80;;;15.50;99.90;;;;;;4897274;29;20440;-70
2024/04/05 12:02:08;;;;;;;15.47;8.73;;;15.50;99.90;;;;;;4881265;29;20459;-69
2024/04/05 12:04:36;;;;;;;6.30;4.70;;;15.50;99.90;;;;;;4896868;29;20797;-70
2024/04/05 12:07:04;;;;;;;6.43;4.00;;;15.50;99.90;;;;;;4897066;29;20476;-70
2024/04/05 12:09:31;;;;;;;9.93;4.60;;;15.50;99.90;;;;;;4897299;29;20457;-70
2024/04/05 12:11:58;;;;;;;10.40;5.07;;;15.50;99.90;;;;;;4881151;29;20846;-70
2024/04/05 12:14:27;;;;;;;7.73;5.10;;;15.50;99.90;;;;;;4881074;29;20536;-70
2024/04/05 12:16:53;;;;;;;6.30;5.40;;;15.50;99.90;;;;;;4896675;29;20445;-70
2024/04/05 12:19:20;;;;;;;9.37;5.80;;;15.60;99.90;;;;;;4914383;29;20948;-70
2024/04/05 12:21:47;;;;;;;8.90;5.10;;;15.60;99.90;;;;;;4900303;29;20497;-70
2024/04/05 12:24:15;;;;;;;7.73;5.60;;;15.60;99.90;;;;;;4900388;29;20448;-70
2024/04/05 12:26:41;;;;;;;8.83;5.33;;;15.60;99.90;;;;;;4900239;29;20480;-70
2024/04/05 12:29:09;;;;;;;8.70;5.33;;;15.60;99.90;;;;;;4900536;29;20448;-70
2024/04/05 12:31:36;;;;;;;11.30;4.90;;;15.60;99.90;;;;;;4915910;29;20428;-70
2024/04/05 12:34:04;;;;;;;7.40;4.80;;;15.60;99.90;;;;;;4900059;29;20462;-70
2024/04/05 12:36:30;;;;;;;7.60;4.33;;;15.60;99.90;;;;;;4899956;29;20808;-70
2024/04/05 12:38:58;;;;;;;6.13;4.17;;;15.60;99.90;;;;;;4884441;29;20460;-71
2024/04/05 12:41:24;;;;;;;5.80;4.20;;;15.50;99.90;;;;;;4884399;29;20460;-70